sensor_id;sensor_type;location;lat;lon;timestamp;P1;durP1;ratioP1;P2;durP2;ratioP2
18162;SDS011;9206;50.994;4.538;2022-11-23T00:01:18;5.17;;;1.90;;
18162;SDS011;9206;50.994;4.538;2022-11-23T00:04:12;10.17;;;2.37;;
18162;SDS011;9206;50.994;4.538;2022-11-23T00:07:02;8.13;;;2.27;;
18162;SDS011;9206;50.994;4.538;2022-11-23T00:09:51;9.33;;;2.20;;
18162;SDS011;9206;50.994;4.538;2022-11-23T00:15:32;8.17;;;2.30;;
18162;SDS011;9206;50.994;4.538;2022-11-23T00:18:25;5.10;;;2.60;;
18162;SDS011;9206;50.994;4.538;2022-11-23T00:21:15;12.57;;;2.83;;
18162;SDS011;9206;50.994;4.538;2022-11-23T00:24:04;8.07;;;2.73;;
18162;SDS011;9206;50.994;4.538;2022-11-23T00:26:51;12.63;;;2.27;;
18162;SDS011;9206;50.994;4.538;2022-11-23T00:29:38;8.67;;;2.60;;
18162;SDS011;9206;50.994;4.538;2022-11-23T00:32:28;7.97;;;2.43;;
18162;SDS011;9206;50.994;4.538;2022-11-23T00:35:17;4.33;;;2.27;;
18162;SDS011;9206;50.994;4.538;2022-11-23T00:38:04;3.60;;;2.40;;
18162;SDS011;9206;50.994;4.538;2022-11-23T00:40:56;5.77;;;2.20;;
18162;SDS011;9206;50.994;4.538;2022-11-23T00:43:45;11.10;;;2.97;;
18162;SDS011;9206;50.994;4.538;2022-11-23T00:46:32;10.30;;;3.00;;
18162;SDS011;9206;50.994;4.538;2022-11-23T00:49:21;9.57;;;2.50;;
18162;SDS011;9206;50.994;4.538;2022-11-23T00:55:01;7.93;;;2.30;;
18162;SDS011;9206;50.994;4.538;2022-11-23T00:57:49;8.20;;;2.93;;
18162;SDS011;9206;50.994;4.538;2022-11-23T01:00:42;10.43;;;2.70;;
18162;SDS011;9206;50.994;4.538;2022-11-23T01:03:32;7.13;;;1.93;;
18162;SDS011;9206;50.994;4.538;2022-11-23T01:06:24;9.13;;;2.77;;
18162;SDS011;9206;50.994;4.538;2022-11-23T01:09:16;7.20;;;2.27;;
18162;SDS011;9206;50.994;4.538;2022-11-23T01:12:05;6.10;;;2.03;;
18162;SDS011;9206;50.994;4.538;2022-11-23T01:14:58;6.30;;;2.20;;
18162;SDS011;9206;50.994;4.538;2022-11-23T01:20:36;6.97;;;2.33;;
18162;SDS011;9206;50.994;4.538;2022-11-23T01:23:30;10.77;;;2.47;;
18162;SDS011;9206;50.994;4.538;2022-11-23T01:26:18;8.03;;;2.30;;
18162;SDS011;9206;50.994;4.538;2022-11-23T01:29:11;8.23;;;2.47;;
18162;SDS011;9206;50.994;4.538;2022-11-23T01:31:59;11.67;;;2.67;;
18162;SDS011;9206;50.994;4.538;2022-11-23T01:34:50;8.97;;;2.33;;
18162;SDS011;9206;50.994;4.538;2022-11-23T01:37:43;11.40;;;3.00;;
18162;SDS011;9206;50.994;4.538;2022-11-23T01:40:39;11.57;;;2.87;;
18162;SDS011;9206;50.994;4.538;2022-11-23T01:43:30;10.90;;;3.03;;
18162;SDS011;9206;50.994;4.538;2022-11-23T01:46:31;8.30;;;2.30;;
18162;SDS011;9206;50.994;4.538;2022-11-23T01:49:18;6.70;;;2.20;;
18162;SDS011;9206;50.994;4.538;2022-11-23T01:52:08;7.43;;;2.37;;
18162;SDS011;9206;50.994;4.538;2022-11-23T01:54:59;7.43;;;2.23;;
18162;SDS011;9206;50.994;4.538;2022-11-23T01:57:49;6.60;;;2.23;;
18162;SDS011;9206;50.994;4.538;2022-11-23T02:00:42;8.87;;;2.33;;
18162;SDS011;9206;50.994;4.538;2022-11-23T02:06:23;8.93;;;2.33;;
18162;SDS011;9206;50.994;4.538;2022-11-23T02:09:11;9.90;;;2.50;;
18162;SDS011;9206;50.994;4.538;2022-11-23T02:11:59;6.33;;;1.93;;
18162;SDS011;9206;50.994;4.538;2022-11-23T02:14:54;8.10;;;2.33;;
18162;SDS011;9206;50.994;4.538;2022-11-23T02:17:42;3.70;;;2.20;;
18162;SDS011;9206;50.994;4.538;2022-11-23T02:23:25;8.33;;;2.30;;
18162;SDS011;9206;50.994;4.538;2022-11-23T02:26:22;8.13;;;2.37;;
18162;SDS011;9206;50.994;4.538;2022-11-23T02:29:13;8.20;;;2.97;;
18162;SDS011;9206;50.994;4.538;2022-11-23T02:32:07;4.37;;;2.20;;
18162;SDS011;9206;50.994;4.538;2022-11-23T02:35:08;5.80;;;2.17;;
18162;SDS011;9206;50.994;4.538;2022-11-23T02:40:55;7.23;;;2.33;;
18162;SDS011;9206;50.994;4.538;2022-11-23T02:43:48;11.10;;;2.57;;
18162;SDS011;9206;50.994;4.538;2022-11-23T02:46:42;11.60;;;2.40;;
18162;SDS011;9206;50.994;4.538;2022-11-23T02:49:37;5.53;;;2.37;;
18162;SDS011;9206;50.994;4.538;2022-11-23T02:52:29;9.97;;;2.83;;
18162;SDS011;9206;50.994;4.538;2022-11-23T02:55:19;12.27;;;2.60;;
18162;SDS011;9206;50.994;4.538;2022-11-23T02:58:12;7.83;;;2.03;;
18162;SDS011;9206;50.994;4.538;2022-11-23T03:01:01;12.47;;;2.73;;
18162;SDS011;9206;50.994;4.538;2022-11-23T03:03:48;8.50;;;2.70;;
18162;SDS011;9206;50.994;4.538;2022-11-23T03:06:36;9.57;;;2.67;;
18162;SDS011;9206;50.994;4.538;2022-11-23T03:09:23;20.23;;;3.60;;
18162;SDS011;9206;50.994;4.538;2022-11-23T03:12:11;12.20;;;2.60;;
18162;SDS011;9206;50.994;4.538;2022-11-23T03:14:58;13.47;;;2.60;;
18162;SDS011;9206;50.994;4.538;2022-11-23T03:20:43;11.33;;;2.70;;
18162;SDS011;9206;50.994;4.538;2022-11-23T03:23:31;10.50;;;3.30;;
18162;SDS011;9206;50.994;4.538;2022-11-23T03:26:24;6.47;;;2.90;;
18162;SDS011;9206;50.994;4.538;2022-11-23T03:29:17;14.50;;;3.60;;
18162;SDS011;9206;50.994;4.538;2022-11-23T03:32:11;12.37;;;2.67;;
18162;SDS011;9206;50.994;4.538;2022-11-23T03:35:00;12.67;;;3.30;;
18162;SDS011;9206;50.994;4.538;2022-11-23T03:40:37;9.40;;;2.50;;
18162;SDS011;9206;50.994;4.538;2022-11-23T03:43:26;9.43;;;2.53;;
18162;SDS011;9206;50.994;4.538;2022-11-23T03:46:19;9.53;;;2.57;;
18162;SDS011;9206;50.994;4.538;2022-11-23T03:49:06;10.37;;;2.87;;
18162;SDS011;9206;50.994;4.538;2022-11-23T03:51:56;10.90;;;3.37;;
18162;SDS011;9206;50.994;4.538;2022-11-23T03:54:50;10.33;;;2.83;;
18162;SDS011;9206;50.994;4.538;2022-11-23T03:57:43;10.03;;;2.80;;
18162;SDS011;9206;50.994;4.538;2022-11-23T04:03:20;12.53;;;3.73;;
18162;SDS011;9206;50.994;4.538;2022-11-23T04:06:08;7.80;;;2.60;;
18162;SDS011;9206;50.994;4.538;2022-11-23T04:08:56;12.13;;;3.07;;
18162;SDS011;9206;50.994;4.538;2022-11-23T04:11:44;10.57;;;2.87;;
18162;SDS011;9206;50.994;4.538;2022-11-23T04:14:32;9.63;;;3.27;;
18162;SDS011;9206;50.994;4.538;2022-11-23T04:17:21;11.67;;;2.57;;
18162;SDS011;9206;50.994;4.538;2022-11-23T04:20:15;7.23;;;2.30;;
18162;SDS011;9206;50.994;4.538;2022-11-23T04:23:02;8.67;;;2.80;;
18162;SDS011;9206;50.994;4.538;2022-11-23T04:25:51;13.87;;;2.97;;
18162;SDS011;9206;50.994;4.538;2022-11-23T04:28:40;11.43;;;2.70;;
18162;SDS011;9206;50.994;4.538;2022-11-23T04:31:33;8.80;;;2.37;;
18162;SDS011;9206;50.994;4.538;2022-11-23T04:34:26;15.53;;;3.10;;
18162;SDS011;9206;50.994;4.538;2022-11-23T04:37:13;15.07;;;3.10;;
18162;SDS011;9206;50.994;4.538;2022-11-23T04:40:01;13.57;;;2.53;;
18162;SDS011;9206;50.994;4.538;2022-11-23T04:42:55;10.87;;;2.70;;
18162;SDS011;9206;50.994;4.538;2022-11-23T04:45:45;20.93;;;3.20;;
18162;SDS011;9206;50.994;4.538;2022-11-23T04:48:35;10.23;;;3.03;;
18162;SDS011;9206;50.994;4.538;2022-11-23T04:51:28;10.33;;;3.17;;
18162;SDS011;9206;50.994;4.538;2022-11-23T04:54:17;11.20;;;2.37;;
18162;SDS011;9206;50.994;4.538;2022-11-23T04:57:06;9.07;;;3.10;;
18162;SDS011;9206;50.994;4.538;2022-11-23T04:59:55;6.47;;;2.90;;
18162;SDS011;9206;50.994;4.538;2022-11-23T05:02:48;13.80;;;2.80;;
18162;SDS011;9206;50.994;4.538;2022-11-23T05:05:36;7.20;;;2.47;;
18162;SDS011;9206;50.994;4.538;2022-11-23T05:11:16;12.20;;;3.90;;
18162;SDS011;9206;50.994;4.538;2022-11-23T05:14:04;10.00;;;2.87;;
18162;SDS011;9206;50.994;4.538;2022-11-23T05:16:56;9.40;;;2.53;;
18162;SDS011;9206;50.994;4.538;2022-11-23T05:19:46;16.27;;;2.93;;
18162;SDS011;9206;50.994;4.538;2022-11-23T05:22:34;10.03;;;2.50;;
18162;SDS011;9206;50.994;4.538;2022-11-23T05:25:27;17.10;;;3.57;;
18162;SDS011;9206;50.994;4.538;2022-11-23T05:28:22;15.63;;;3.33;;
18162;SDS011;9206;50.994;4.538;2022-11-23T05:31:13;11.27;;;3.67;;
18162;SDS011;9206;50.994;4.538;2022-11-23T05:34:02;9.27;;;3.53;;
18162;SDS011;9206;50.994;4.538;2022-11-23T05:36:56;9.40;;;3.47;;
18162;SDS011;9206;50.994;4.538;2022-11-23T05:39:49;9.80;;;3.23;;
18162;SDS011;9206;50.994;4.538;2022-11-23T05:42:42;16.00;;;3.40;;
18162;SDS011;9206;50.994;4.538;2022-11-23T05:45:36;11.57;;;2.63;;
18162;SDS011;9206;50.994;4.538;2022-11-23T05:48:29;9.13;;;3.10;;
18162;SDS011;9206;50.994;4.538;2022-11-23T05:54:22;8.47;;;2.87;;
18162;SDS011;9206;50.994;4.538;2022-11-23T06:00:08;7.63;;;2.30;;
18162;SDS011;9206;50.994;4.538;2022-11-23T06:03:04;8.57;;;2.70;;
18162;SDS011;9206;50.994;4.538;2022-11-23T06:05:52;9.47;;;2.60;;
18162;SDS011;9206;50.994;4.538;2022-11-23T06:08:42;15.93;;;2.70;;
18162;SDS011;9206;50.994;4.538;2022-11-23T06:11:36;15.43;;;2.90;;
18162;SDS011;9206;50.994;4.538;2022-11-23T06:14:27;15.40;;;3.33;;
18162;SDS011;9206;50.994;4.538;2022-11-23T06:20:06;10.17;;;2.83;;
18162;SDS011;9206;50.994;4.538;2022-11-23T06:23:00;10.83;;;3.07;;
18162;SDS011;9206;50.994;4.538;2022-11-23T06:25:50;9.07;;;3.33;;
18162;SDS011;9206;50.994;4.538;2022-11-23T06:28:38;10.23;;;2.50;;
18162;SDS011;9206;50.994;4.538;2022-11-23T06:31:31;6.63;;;2.50;;
18162;SDS011;9206;50.994;4.538;2022-11-23T06:37:10;4.47;;;2.40;;
18162;SDS011;9206;50.994;4.538;2022-11-23T06:40:00;10.83;;;2.63;;
18162;SDS011;9206;50.994;4.538;2022-11-23T06:42:50;3.53;;;2.50;;
18162;SDS011;9206;50.994;4.538;2022-11-23T06:45:40;15.43;;;4.03;;
18162;SDS011;9206;50.994;4.538;2022-11-23T06:48:28;10.77;;;3.10;;
18162;SDS011;9206;50.994;4.538;2022-11-23T06:51:16;11.70;;;2.83;;
18162;SDS011;9206;50.994;4.538;2022-11-23T06:54:04;11.77;;;2.90;;
18162;SDS011;9206;50.994;4.538;2022-11-23T06:56:53;13.87;;;2.93;;
18162;SDS011;9206;50.994;4.538;2022-11-23T06:59:43;10.20;;;2.67;;
18162;SDS011;9206;50.994;4.538;2022-11-23T07:02:32;11.03;;;2.67;;
18162;SDS011;9206;50.994;4.538;2022-11-23T07:05:20;13.97;;;2.80;;
18162;SDS011;9206;50.994;4.538;2022-11-23T07:08:11;11.77;;;2.90;;
18162;SDS011;9206;50.994;4.538;2022-11-23T07:11:04;13.83;;;2.97;;
18162;SDS011;9206;50.994;4.538;2022-11-23T07:13:53;14.60;;;3.20;;
18162;SDS011;9206;50.994;4.538;2022-11-23T07:16:43;12.20;;;3.30;;
18162;SDS011;9206;50.994;4.538;2022-11-23T07:19:30;10.47;;;2.57;;
18162;SDS011;9206;50.994;4.538;2022-11-23T07:25:13;13.77;;;3.37;;
18162;SDS011;9206;50.994;4.538;2022-11-23T07:28:04;10.27;;;2.97;;
18162;SDS011;9206;50.994;4.538;2022-11-23T07:30:58;9.57;;;2.70;;
18162;SDS011;9206;50.994;4.538;2022-11-23T07:33:49;10.77;;;2.77;;
18162;SDS011;9206;50.994;4.538;2022-11-23T07:36:43;19.67;;;3.07;;
18162;SDS011;9206;50.994;4.538;2022-11-23T07:39:31;10.40;;;2.97;;
18162;SDS011;9206;50.994;4.538;2022-11-23T07:42:18;9.20;;;3.10;;
18162;SDS011;9206;50.994;4.538;2022-11-23T07:45:07;8.07;;;3.00;;
18162;SDS011;9206;50.994;4.538;2022-11-23T07:47:58;6.43;;;2.60;;
18162;SDS011;9206;50.994;4.538;2022-11-23T07:50:52;18.70;;;3.13;;
18162;SDS011;9206;50.994;4.538;2022-11-23T07:53:45;9.17;;;2.70;;
18162;SDS011;9206;50.994;4.538;2022-11-23T07:56:33;8.00;;;2.90;;
18162;SDS011;9206;50.994;4.538;2022-11-23T07:59:22;17.57;;;3.93;;
18162;SDS011;9206;50.994;4.538;2022-11-23T08:02:14;10.77;;;3.13;;
18162;SDS011;9206;50.994;4.538;2022-11-23T08:05:02;13.47;;;3.87;;
18162;SDS011;9206;50.994;4.538;2022-11-23T08:08:00;6.70;;;2.90;;
18162;SDS011;9206;50.994;4.538;2022-11-23T08:10:51;11.60;;;3.07;;
18162;SDS011;9206;50.994;4.538;2022-11-23T08:13:39;10.53;;;3.40;;
18162;SDS011;9206;50.994;4.538;2022-11-23T08:16:32;11.40;;;3.60;;
18162;SDS011;9206;50.994;4.538;2022-11-23T08:19:19;9.83;;;3.37;;
18162;SDS011;9206;50.994;4.538;2022-11-23T08:22:12;12.87;;;4.10;;
18162;SDS011;9206;50.994;4.538;2022-11-23T08:25:07;7.30;;;3.07;;
18162;SDS011;9206;50.994;4.538;2022-11-23T08:27:56;6.43;;;3.07;;
18162;SDS011;9206;50.994;4.538;2022-11-23T08:31:04;9.50;;;2.73;;
18162;SDS011;9206;50.994;4.538;2022-11-23T08:33:52;9.97;;;2.97;;
18162;SDS011;9206;50.994;4.538;2022-11-23T08:36:42;8.47;;;3.10;;
18162;SDS011;9206;50.994;4.538;2022-11-23T08:39:36;8.50;;;3.30;;
18162;SDS011;9206;50.994;4.538;2022-11-23T08:42:28;7.57;;;3.00;;
18162;SDS011;9206;50.994;4.538;2022-11-23T08:45:16;8.97;;;3.67;;
18162;SDS011;9206;50.994;4.538;2022-11-23T08:48:08;8.77;;;2.93;;
18162;SDS011;9206;50.994;4.538;2022-11-23T08:50:57;8.33;;;2.87;;
18162;SDS011;9206;50.994;4.538;2022-11-23T08:53:51;16.27;;;4.27;;
18162;SDS011;9206;50.994;4.538;2022-11-23T08:56:44;11.23;;;2.73;;
18162;SDS011;9206;50.994;4.538;2022-11-23T08:59:36;10.33;;;3.20;;
18162;SDS011;9206;50.994;4.538;2022-11-23T09:02:24;9.17;;;3.03;;
18162;SDS011;9206;50.994;4.538;2022-11-23T09:05:12;10.83;;;3.10;;
18162;SDS011;9206;50.994;4.538;2022-11-23T09:08:05;8.60;;;2.97;;
18162;SDS011;9206;50.994;4.538;2022-11-23T09:10:57;6.77;;;3.00;;
18162;SDS011;9206;50.994;4.538;2022-11-23T09:13:45;5.13;;;2.90;;
18162;SDS011;9206;50.994;4.538;2022-11-23T09:19:24;9.57;;;3.13;;
18162;SDS011;9206;50.994;4.538;2022-11-23T09:22:12;7.77;;;3.57;;
18162;SDS011;9206;50.994;4.538;2022-11-23T09:25:00;10.63;;;4.10;;
18162;SDS011;9206;50.994;4.538;2022-11-23T09:30:42;13.00;;;3.00;;
18162;SDS011;9206;50.994;4.538;2022-11-23T09:33:50;4.60;;;2.80;;
18162;SDS011;9206;50.994;4.538;2022-11-23T09:36:43;9.03;;;2.93;;
18162;SDS011;9206;50.994;4.538;2022-11-23T09:39:38;8.53;;;2.90;;
18162;SDS011;9206;50.994;4.538;2022-11-23T09:45:29;9.50;;;3.07;;
18162;SDS011;9206;50.994;4.538;2022-11-23T09:48:38;5.00;;;2.23;;
18162;SDS011;9206;50.994;4.538;2022-11-23T09:51:37;12.70;;;2.73;;
18162;SDS011;9206;50.994;4.538;2022-11-23T09:54:29;4.57;;;2.40;;
18162;SDS011;9206;50.994;4.538;2022-11-23T09:57:19;5.17;;;2.37;;
18162;SDS011;9206;50.994;4.538;2022-11-23T10:00:16;7.30;;;2.60;;
18162;SDS011;9206;50.994;4.538;2022-11-23T10:03:16;7.13;;;2.30;;
18162;SDS011;9206;50.994;4.538;2022-11-23T10:06:04;8.77;;;2.70;;
18162;SDS011;9206;50.994;4.538;2022-11-23T10:09:10;4.20;;;2.70;;
18162;SDS011;9206;50.994;4.538;2022-11-23T10:12:16;6.63;;;2.50;;
18162;SDS011;9206;50.994;4.538;2022-11-23T10:15:19;2.60;;;2.33;;
18162;SDS011;9206;50.994;4.538;2022-11-23T10:21:16;7.53;;;2.10;;
18162;SDS011;9206;50.994;4.538;2022-11-23T10:24:16;2.83;;;2.20;;
18162;SDS011;9206;50.994;4.538;2022-11-23T10:27:12;6.17;;;1.90;;
18162;SDS011;9206;50.994;4.538;2022-11-23T10:30:05;4.60;;;2.40;;
18162;SDS011;9206;50.994;4.538;2022-11-23T10:32:59;6.30;;;2.43;;
18162;SDS011;9206;50.994;4.538;2022-11-23T10:35:50;7.77;;;2.10;;
18162;SDS011;9206;50.994;4.538;2022-11-23T10:41:31;8.87;;;3.53;;
18162;SDS011;9206;50.994;4.538;2022-11-23T10:44:25;4.00;;;2.80;;
18162;SDS011;9206;50.994;4.538;2022-11-23T10:50:22;5.73;;;3.30;;
18162;SDS011;9206;50.994;4.538;2022-11-23T10:53:17;8.50;;;3.13;;
18162;SDS011;9206;50.994;4.538;2022-11-23T10:56:10;4.10;;;2.13;;
18162;SDS011;9206;50.994;4.538;2022-11-23T11:01:57;5.80;;;3.43;;
18162;SDS011;9206;50.994;4.538;2022-11-23T11:05:11;7.33;;;3.63;;
18162;SDS011;9206;50.994;4.538;2022-11-23T11:08:07;5.27;;;2.83;;
18162;SDS011;9206;50.994;4.538;2022-11-23T11:11:00;4.30;;;1.50;;
18162;SDS011;9206;50.994;4.538;2022-11-23T11:13:50;5.10;;;1.93;;
18162;SDS011;9206;50.994;4.538;2022-11-23T11:17:09;5.80;;;2.93;;
18162;SDS011;9206;50.994;4.538;2022-11-23T11:20:23;8.57;;;2.53;;
18162;SDS011;9206;50.994;4.538;2022-11-23T11:23:24;9.73;;;2.10;;
18162;SDS011;9206;50.994;4.538;2022-11-23T11:26:17;8.43;;;2.00;;
18162;SDS011;9206;50.994;4.538;2022-11-23T11:29:31;5.10;;;1.80;;
18162;SDS011;9206;50.994;4.538;2022-11-23T11:32:23;8.50;;;2.43;;
18162;SDS011;9206;50.994;4.538;2022-11-23T11:35:22;4.10;;;1.80;;
18162;SDS011;9206;50.994;4.538;2022-11-23T11:38:18;3.60;;;1.60;;
18162;SDS011;9206;50.994;4.538;2022-11-23T11:41:22;3.60;;;1.57;;
18162;SDS011;9206;50.994;4.538;2022-11-23T11:44:21;7.90;;;1.90;;
18162;SDS011;9206;50.994;4.538;2022-11-23T11:47:23;2.33;;;1.53;;
18162;SDS011;9206;50.994;4.538;2022-11-23T11:50:17;3.47;;;1.40;;
18162;SDS011;9206;50.994;4.538;2022-11-23T11:56:05;4.47;;;2.00;;
18162;SDS011;9206;50.994;4.538;2022-11-23T11:59:11;2.93;;;1.63;;
18162;SDS011;9206;50.994;4.538;2022-11-23T12:02:13;8.13;;;2.00;;
18162;SDS011;9206;50.994;4.538;2022-11-23T12:05:12;6.83;;;2.10;;
18162;SDS011;9206;50.994;4.538;2022-11-23T12:08:05;4.77;;;2.20;;
18162;SDS011;9206;50.994;4.538;2022-11-23T12:11:00;3.33;;;2.27;;
18162;SDS011;9206;50.994;4.538;2022-11-23T12:13:53;4.20;;;1.83;;
18162;SDS011;9206;50.994;4.538;2022-11-23T12:16:50;4.00;;;1.53;;
18162;SDS011;9206;50.994;4.538;2022-11-23T12:19:43;4.83;;;2.33;;
18162;SDS011;9206;50.994;4.538;2022-11-23T12:22:42;4.90;;;2.93;;
18162;SDS011;9206;50.994;4.538;2022-11-23T12:28:56;2.93;;;1.70;;
18162;SDS011;9206;50.994;4.538;2022-11-23T12:32:07;5.03;;;1.90;;
18162;SDS011;9206;50.994;4.538;2022-11-23T12:38:22;5.60;;;1.87;;
18162;SDS011;9206;50.994;4.538;2022-11-23T12:41:20;2.60;;;2.13;;
18162;SDS011;9206;50.994;4.538;2022-11-23T12:47:12;3.57;;;1.30;;
18162;SDS011;9206;50.994;4.538;2022-11-23T12:50:18;4.07;;;1.30;;
18162;SDS011;9206;50.994;4.538;2022-11-23T12:53:20;4.67;;;1.90;;
18162;SDS011;9206;50.994;4.538;2022-11-23T12:56:30;2.70;;;2.07;;
18162;SDS011;9206;50.994;4.538;2022-11-23T12:59:36;3.60;;;1.20;;
18162;SDS011;9206;50.994;4.538;2022-11-23T13:02:34;2.37;;;1.47;;
18162;SDS011;9206;50.994;4.538;2022-11-23T13:08:59;3.40;;;1.60;;
18162;SDS011;9206;50.994;4.538;2022-11-23T13:12:12;3.13;;;1.40;;
18162;SDS011;9206;50.994;4.538;2022-11-23T13:15:18;2.40;;;1.20;;
18162;SDS011;9206;50.994;4.538;2022-11-23T13:18:24;4.63;;;1.63;;
18162;SDS011;9206;50.994;4.538;2022-11-23T13:21:29;3.53;;;2.10;;
18162;SDS011;9206;50.994;4.538;2022-11-23T13:24:29;3.77;;;1.70;;
18162;SDS011;9206;50.994;4.538;2022-11-23T13:30:28;3.10;;;1.70;;
18162;SDS011;9206;50.994;4.538;2022-11-23T13:33:35;2.97;;;1.80;;
18162;SDS011;9206;50.994;4.538;2022-11-23T13:36:40;7.67;;;6.87;;
18162;SDS011;9206;50.994;4.538;2022-11-23T13:42:55;2.67;;;2.57;;
18162;SDS011;9206;50.994;4.538;2022-11-23T13:49:22;2.53;;;2.33;;
18162;SDS011;9206;50.994;4.538;2022-11-23T13:52:33;5.23;;;4.67;;
18162;SDS011;9206;50.994;4.538;2022-11-23T13:55:30;1.83;;;1.73;;
18162;SDS011;9206;50.994;4.538;2022-11-23T13:58:37;4.43;;;4.03;;
18162;SDS011;9206;50.994;4.538;2022-11-23T14:04:48;2.07;;;1.87;;
18162;SDS011;9206;50.994;4.538;2022-11-23T14:10:47;3.20;;;1.53;;
18162;SDS011;9206;50.994;4.538;2022-11-23T14:13:37;3.67;;;1.40;;
18162;SDS011;9206;50.994;4.538;2022-11-23T14:16:30;5.40;;;5.10;;
18162;SDS011;9206;50.994;4.538;2022-11-23T14:19:52;2.60;;;2.40;;
18162;SDS011;9206;50.994;4.538;2022-11-23T14:23:17;4.37;;;4.17;;
18162;SDS011;9206;50.994;4.538;2022-11-23T14:26:24;3.90;;;2.10;;
18162;SDS011;9206;50.994;4.538;2022-11-23T14:29:27;2.00;;;1.67;;
18162;SDS011;9206;50.994;4.538;2022-11-23T14:32:27;1.70;;;1.60;;
18162;SDS011;9206;50.994;4.538;2022-11-23T14:35:30;1.60;;;1.40;;
18162;SDS011;9206;50.994;4.538;2022-11-23T14:41:25;1.80;;;1.70;;
18162;SDS011;9206;50.994;4.538;2022-11-23T14:44:15;2.93;;;2.13;;
18162;SDS011;9206;50.994;4.538;2022-11-23T14:47:07;2.10;;;1.30;;
18162;SDS011;9206;50.994;4.538;2022-11-23T14:49:55;6.93;;;6.33;;
18162;SDS011;9206;50.994;4.538;2022-11-23T14:52:45;1.30;;;1.20;;
18162;SDS011;9206;50.994;4.538;2022-11-23T14:55:34;1.83;;;1.73;;
18162;SDS011;9206;50.994;4.538;2022-11-23T14:58:27;1.70;;;1.60;;
18162;SDS011;9206;50.994;4.538;2022-11-23T15:01:20;1.93;;;1.70;;
18162;SDS011;9206;50.994;4.538;2022-11-23T15:04:20;2.43;;;2.23;;
18162;SDS011;9206;50.994;4.538;2022-11-23T15:10:04;2.00;;;1.90;;
18162;SDS011;9206;50.994;4.538;2022-11-23T15:12:58;1.83;;;1.43;;
18162;SDS011;9206;50.994;4.538;2022-11-23T15:16:04;2.53;;;2.43;;
18162;SDS011;9206;50.994;4.538;2022-11-23T15:18:51;9.33;;;8.53;;
18162;SDS011;9206;50.994;4.538;2022-11-23T15:21:48;1.77;;;1.67;;
18162;SDS011;9206;50.994;4.538;2022-11-23T15:24:40;2.50;;;2.40;;
18162;SDS011;9206;50.994;4.538;2022-11-23T15:27:27;2.63;;;2.47;;
18162;SDS011;9206;50.994;4.538;2022-11-23T15:30:17;1.60;;;1.50;;
18162;SDS011;9206;50.994;4.538;2022-11-23T15:33:13;3.40;;;3.10;;
18162;SDS011;9206;50.994;4.538;2022-11-23T15:36:10;2.10;;;1.70;;
18162;SDS011;9206;50.994;4.538;2022-11-23T15:39:01;1.47;;;1.40;;
18162;SDS011;9206;50.994;4.538;2022-11-23T15:41:52;2.17;;;1.33;;
18162;SDS011;9206;50.994;4.538;2022-11-23T15:44:46;2.00;;;1.90;;
18162;SDS011;9206;50.994;4.538;2022-11-23T15:50:30;3.63;;;1.77;;
18162;SDS011;9206;50.994;4.538;2022-11-23T15:53:36;2.10;;;1.60;;
18162;SDS011;9206;50.994;4.538;2022-11-23T15:56:35;2.83;;;1.87;;
18162;SDS011;9206;50.994;4.538;2022-11-23T15:59:37;2.03;;;1.83;;
18162;SDS011;9206;50.994;4.538;2022-11-23T16:02:28;2.10;;;1.60;;
18162;SDS011;9206;50.994;4.538;2022-11-23T16:05:22;2.50;;;1.93;;
18162;SDS011;9206;50.994;4.538;2022-11-23T16:08:22;2.83;;;2.63;;
18162;SDS011;9206;50.994;4.538;2022-11-23T16:11:21;4.37;;;1.90;;
18162;SDS011;9206;50.994;4.538;2022-11-23T16:14:32;3.57;;;2.23;;
18162;SDS011;9206;50.994;4.538;2022-11-23T16:17:43;4.60;;;2.70;;
18162;SDS011;9206;50.994;4.538;2022-11-23T16:20:41;3.37;;;2.53;;
18162;SDS011;9206;50.994;4.538;2022-11-23T16:23:40;2.43;;;2.23;;
18162;SDS011;9206;50.994;4.538;2022-11-23T16:29:23;2.53;;;2.33;;
18162;SDS011;9206;50.994;4.538;2022-11-23T16:32:19;2.23;;;2.03;;
18162;SDS011;9206;50.994;4.538;2022-11-23T16:35:14;3.10;;;2.37;;
18162;SDS011;9206;50.994;4.538;2022-11-23T16:38:07;3.77;;;2.50;;
18162;SDS011;9206;50.994;4.538;2022-11-23T16:41:10;4.37;;;2.70;;
18162;SDS011;9206;50.994;4.538;2022-11-23T16:44:10;3.63;;;2.37;;
18162;SDS011;9206;50.994;4.538;2022-11-23T16:47:11;2.97;;;2.23;;
18162;SDS011;9206;50.994;4.538;2022-11-23T16:50:13;7.77;;;2.77;;
18162;SDS011;9206;50.994;4.538;2022-11-23T16:53:01;4.23;;;2.50;;
18162;SDS011;9206;50.994;4.538;2022-11-23T16:56:02;5.37;;;2.60;;
18162;SDS011;9206;50.994;4.538;2022-11-23T16:58:51;5.40;;;2.63;;
18162;SDS011;9206;50.994;4.538;2022-11-23T17:01:40;3.53;;;2.70;;
18162;SDS011;9206;50.994;4.538;2022-11-23T17:04:30;10.10;;;2.90;;
18162;SDS011;9206;50.994;4.538;2022-11-23T17:07:18;5.90;;;2.70;;
18162;SDS011;9206;50.994;4.538;2022-11-23T17:10:06;6.00;;;3.40;;
18162;SDS011;9206;50.994;4.538;2022-11-23T17:13:00;3.27;;;2.97;;
18162;SDS011;9206;50.994;4.538;2022-11-23T17:15:50;9.40;;;3.17;;
18162;SDS011;9206;50.994;4.538;2022-11-23T17:18:37;3.37;;;3.10;;
18162;SDS011;9206;50.994;4.538;2022-11-23T17:21:26;8.93;;;3.03;;
18162;SDS011;9206;50.994;4.538;2022-11-23T17:24:13;3.20;;;2.90;;
18162;SDS011;9206;50.994;4.538;2022-11-23T17:27:08;4.10;;;3.17;;
18162;SDS011;9206;50.994;4.538;2022-11-23T17:33:09;8.80;;;7.37;;
18162;SDS011;9206;50.994;4.538;2022-11-23T17:35:59;15.87;;;4.00;;
18162;SDS011;9206;50.994;4.538;2022-11-23T17:38:48;6.43;;;3.50;;
18162;SDS011;9206;50.994;4.538;2022-11-23T17:41:43;8.47;;;3.47;;
18162;SDS011;9206;50.994;4.538;2022-11-23T17:44:33;10.50;;;6.47;;
18162;SDS011;9206;50.994;4.538;2022-11-23T17:47:22;5.43;;;3.77;;
18162;SDS011;9206;50.994;4.538;2022-11-23T17:50:16;14.73;;;4.43;;
18162;SDS011;9206;50.994;4.538;2022-11-23T17:53:10;10.07;;;5.27;;
18162;SDS011;9206;50.994;4.538;2022-11-23T17:55:59;12.90;;;5.07;;
18162;SDS011;9206;50.994;4.538;2022-11-23T17:59:01;11.13;;;4.13;;
18162;SDS011;9206;50.994;4.538;2022-11-23T18:04:39;11.27;;;5.10;;
18162;SDS011;9206;50.994;4.538;2022-11-23T18:07:29;14.90;;;5.00;;
18162;SDS011;9206;50.994;4.538;2022-11-23T18:10:18;13.63;;;4.90;;
18162;SDS011;9206;50.994;4.538;2022-11-23T18:13:11;13.47;;;7.83;;
18162;SDS011;9206;50.994;4.538;2022-11-23T18:15:58;19.97;;;6.10;;
18162;SDS011;9206;50.994;4.538;2022-11-23T18:18:46;18.27;;;8.23;;
18162;SDS011;9206;50.994;4.538;2022-11-23T18:21:36;30.73;;;14.73;;
18162;SDS011;9206;50.994;4.538;2022-11-23T18:24:30;49.27;;;28.60;;
18162;SDS011;9206;50.994;4.538;2022-11-23T18:27:19;19.20;;;8.70;;
18162;SDS011;9206;50.994;4.538;2022-11-23T18:30:07;13.70;;;6.63;;
18162;SDS011;9206;50.994;4.538;2022-11-23T18:32:55;18.23;;;6.23;;
18162;SDS011;9206;50.994;4.538;2022-11-23T18:35:42;12.57;;;5.20;;
18162;SDS011;9206;50.994;4.538;2022-11-23T18:38:31;19.67;;;5.50;;
18162;SDS011;9206;50.994;4.538;2022-11-23T18:41:25;17.37;;;9.27;;
18162;SDS011;9206;50.994;4.538;2022-11-23T18:44:13;14.47;;;5.27;;
18162;SDS011;9206;50.994;4.538;2022-11-23T18:47:06;22.07;;;6.27;;
18162;SDS011;9206;50.994;4.538;2022-11-23T18:49:53;25.00;;;5.87;;
18162;SDS011;9206;50.994;4.538;2022-11-23T18:52:42;18.43;;;6.10;;
18162;SDS011;9206;50.994;4.538;2022-11-23T18:55:31;18.07;;;5.60;;
18162;SDS011;9206;50.994;4.538;2022-11-23T18:58:25;22.30;;;5.10;;
18162;SDS011;9206;50.994;4.538;2022-11-23T19:01:18;19.53;;;5.90;;
18162;SDS011;9206;50.994;4.538;2022-11-23T19:04:09;26.53;;;6.60;;
18162;SDS011;9206;50.994;4.538;2022-11-23T19:06:57;24.07;;;6.17;;
18162;SDS011;9206;50.994;4.538;2022-11-23T19:09:50;19.70;;;5.77;;
18162;SDS011;9206;50.994;4.538;2022-11-23T19:12:39;21.83;;;5.47;;
18162;SDS011;9206;50.994;4.538;2022-11-23T19:15:29;17.60;;;4.73;;
18162;SDS011;9206;50.994;4.538;2022-11-23T19:18:18;21.57;;;5.70;;
18162;SDS011;9206;50.994;4.538;2022-11-23T19:21:14;22.77;;;5.33;;
18162;SDS011;9206;50.994;4.538;2022-11-23T19:24:04;16.53;;;5.27;;
18162;SDS011;9206;50.994;4.538;2022-11-23T19:26:54;18.33;;;5.77;;